Time;durP1;ratioP1;P1;durP2;ratioP2;P2;SDS_P1;SDS_P2;PMS_P1;PMS_P2;Temp;Humidity;BMP_temperature;BMP_pressure;BME280_temperature;BME280_humidity;BME280_pressure;Samples;Min_cycle;Max_cycle;Signal;HPM_P1;HPM_P2
2021/11/09 00:00:08;;;;;;;1.77;1.40;;;;;;;11.82;79.18;98751.31;5057465;28;20051;-94
2021/11/09 00:02:34;;;;;;;3.95;1.70;;;;;;;11.81;80.51;98766.44;5056275;28;20063;-94
2021/11/09 00:05:02;;;;;;;2.63;1.60;;;;;;;11.62;81.59;98742.19;5058544;28;20030;-92
2021/11/09 00:07:36;;;;;;;2.83;1.60;;;;;;;11.54;82.45;98732.69;5056646;28;20037;-92
2021/11/09 00:13:04;;;;;;;2.28;1.70;;;;;;;11.45;84.63;98721.44;5078742;27;20765;-94
2021/11/09 00:15:32;;;;;;;4.28;1.75;;;;;;;11.28;85.08;98711.31;5078158;28;20094;-93
2021/11/09 00:18:00;;;;;;;3.83;1.95;;;;;;;11.26;85.44;98728.25;5074817;28;20548;-94
2021/11/09 00:20:29;;;;;;;3.43;1.87;;;;;;;11.25;86.28;98743.31;5073219;28;20095;-94
2021/11/09 00:22:55;;;;;;;;;;;;;;;11.29;85.50;98731.66;5078220;28;20398;-93
2021/11/09 00:25:24;;;;;;;3.53;1.65;;;;;;;11.06;85.05;98702.19;5080190;28;19920;-95
2021/11/09 00:27:50;;;;;;;4.60;1.90;;;;;;;11.11;85.84;98694.97;5080031;28;20041;-94
2021/11/09 00:30:22;;;;;;;4.07;1.77;;;;;;;11.19;85.29;98716.00;5078391;28;20041;-93
2021/11/09 00:32:48;;;;;;;5.38;1.75;;;;;;;11.25;84.70;98710.50;5080045;28;20447;-93
2021/11/09 00:35:18;;;;;;;3.17;1.90;;;;;;;11.22;84.44;98702.63;5080611;28;20036;-95
2021/11/09 00:37:45;;;;;;;3.35;1.70;;;;;;;11.32;85.00;98722.72;5077766;28;20037;-94
2021/11/09 00:40:13;;;;;;;4.40;2.17;;;;;;;11.19;83.69;98689.41;5073043;28;20056;-94
2021/11/09 00:42:39;;;;;;;5.80;1.90;;;;;;;11.31;84.06;98719.19;5082926;28;20029;-94
2021/11/09 00:45:09;;;;;;;4.85;1.70;;;;;;;11.25;83.66;98719.34;5079477;28;20036;-93
2021/11/09 00:47:39;;;;;;;3.72;1.60;;;;;;;11.20;84.70;98718.63;5075764;28;20043;-95
2021/11/09 00:50:08;;;;;;;5.05;2.03;;;;;;;11.11;84.28;98694.97;5086740;28;20032;-93
2021/11/09 00:52:34;;;;;;;5.07;1.80;;;;;;;11.18;83.45;98706.31;5084867;28;20048;-95
2021/11/09 00:55:00;;;;;;;3.70;1.95;;;;;;;11.20;83.74;98723.97;5073601;28;20049;-95
2021/11/09 00:57:26;;;;;;;5.38;2.00;;;;;;;11.20;83.16;98725.75;5078837;28;20047;-94
2021/11/09 00:59:52;;;;;;;4.78;2.05;;;;;;;11.12;83.94;98728.63;5087096;28;20049;-95
2021/11/09 01:02:20;;;;;;;4.10;1.90;;;;;;;11.10;83.54;98736.69;5076615;28;20045;-93
2021/11/09 01:04:47;;;;;;;3.30;1.65;;;;;;;11.12;83.98;98757.91;5081066;28;20105;-94
2021/11/09 01:07:13;;;;;;;5.43;2.10;;;;;;;10.94;84.56;98748.69;5077824;28;20040;-95
2021/11/09 01:09:42;;;;;;;4.90;2.00;;;;;;;10.94;84.47;98753.16;5079555;28;20048;-94
2021/11/09 01:12:10;;;;;;;5.47;1.95;;;;;;;10.95;84.74;98765.50;5077738;28;20514;-94
2021/11/09 01:14:40;;;;;;;5.70;2.10;;;;;;;10.93;83.72;98762.03;5076294;28;20048;-94
2021/11/09 01:17:06;;;;;;;6.97;2.50;;;;;;;10.98;84.13;98768.97;5083898;28;20079;-92
2021/11/09 01:19:33;;;;;;;4.65;1.95;;;;;;;10.98;84.19;98761.00;5084616;28;20463;-94
2021/11/09 01:22:05;;;;;;;7.65;2.42;;;;;;;10.85;83.65;98741.84;5082783;28;20037;-95
2021/11/09 01:24:32;;;;;;;5.40;2.42;;;;;;;10.86;84.13;98756.91;5061020;28;20055;-93
2021/11/09 01:26:58;;;;;;;6.57;2.47;;;;;;;10.74;86.52;98753.72;5057493;28;20095;-95
2021/11/09 01:29:24;;;;;;;5.35;2.15;;;;;;;10.71;87.98;98770.59;5070656;28;20041;-95
2021/11/09 01:31:53;;;;;;;4.63;2.47;;;;;;;10.42;89.60;98745.69;5066613;28;20134;-94
2021/11/09 01:34:19;;;;;;;7.32;2.80;;;;;;;10.38;90.43;98765.28;5076077;28;20048;-94
2021/11/09 01:36:45;;;;;;;6.20;2.35;;;;;;;10.27;91.31;98749.59;5065249;28;20079;-96
2021/11/09 01:39:13;;;;;;;5.95;2.53;;;;;;;10.34;90.40;98745.00;5060378;28;20037;-91
2021/11/09 01:41:39;;;;;;;5.55;2.58;;;;;;;10.42;91.19;98756.31;5072355;28;20088;-95
2021/11/09 01:44:06;;;;;;;5.13;2.78;;;;;;;10.52;91.20;98769.34;5061530;28;20047;-95
2021/11/09 01:46:32;;;;;;;5.80;2.38;;;;;;;10.51;90.96;98775.59;5062206;28;20372;-95
2021/11/09 01:48:58;;;;;;;4.75;2.30;;;;;;;10.40;91.76;98759.94;5066771;28;20045;-94
2021/11/09 01:51:25;;;;;;;6.15;2.80;;;;;;;10.39;91.36;98761.72;5066376;28;20043;-95
2021/11/09 01:53:53;;;;;;;6.18;2.08;;;;;;;10.36;91.66;98759.13;5059674;28;20068;-96
2021/11/09 01:56:26;;;;;;;6.40;2.50;;;;;;;10.27;90.50;98738.97;5062202;28;20049;-95
2021/11/09 01:58:52;;;;;;;6.13;2.42;;;;;;;10.31;91.25;98742.44;5059108;28;20073;-94
2021/11/09 02:01:20;;;;;;;6.10;2.63;;;;;;;10.35;91.00;98748.56;5060889;28;20063;-94
2021/11/09 02:03:48;;;;;;;8.27;2.55;;;;;;;10.31;90.04;98739.78;5066887;28;20104;-94
2021/11/09 02:06:16;;;;;;;7.25;2.85;;;;;;;10.48;89.53;98761.47;5072260;28;20128;-94
2021/11/09 02:08:42;;;;;;;5.78;2.55;;;;;;;10.38;90.34;98751.13;5066124;28;20048;-94
2021/11/09 02:11:09;;;;;;;8.05;2.70;;;;;;;10.35;91.38;98748.56;5071974;28;20052;-96
2021/11/09 02:13:37;;;;;;;7.20;2.70;;;;;;;10.43;90.76;98784.66;5070731;28;20505;-94
2021/11/09 02:16:04;;;;;;;5.72;2.83;;;;;;;10.33;90.78;98769.00;5056227;28;20394;-95
2021/11/09 02:18:31;;;;;;;6.13;3.03;;;;;;;10.20;90.41;98752.47;5065492;28;20044;-94
2021/11/09 02:21:01;;;;;;;5.18;2.70;;;;;;;10.22;91.44;98753.28;5080457;28;20044;-95
2021/11/09 02:23:29;;;;;;;9.55;2.72;;;;;;;10.19;92.07;98771.97;5073630;28;20059;-94
2021/11/09 02:25:55;;;;;;;7.70;3.10;;;;;;;9.99;91.65;98749.41;5066480;28;20037;-95
2021/11/09 02:28:22;;;;;;;7.53;3.13;;;;;;;10.03;91.60;98756.41;5060097;28;20041;-95
2021/11/09 02:30:48;;;;;;;10.63;3.15;;;;;;;10.20;91.18;98793.19;5059253;28;20040;-95
2021/11/09 02:33:15;;;;;;;10.73;3.58;;;;;;;9.97;90.70;98753.91;5066674;28;20537;-96
2021/11/09 02:35:41;;;;;;;7.95;3.22;;;;;;;10.04;91.03;98766.13;5073568;28;20094;-94
2021/11/09 02:38:09;;;;;;;6.30;3.08;;;;;;;10.02;91.00;98773.28;5057711;28;20044;-95
2021/11/09 02:40:35;;;;;;;7.53;3.35;;;;;;;10.02;91.47;98786.56;5052908;28;20391;-96
2021/11/09 02:43:06;;;;;;;10.77;3.47;;;;;;;10.01;91.33;98797.22;5075663;28;20103;-94
2021/11/09 02:45:39;;;;;;;8.93;3.08;;;;;;;9.86;91.21;98787.81;5072543;28;20464;-95
2021/11/09 03:03:21;;;;;;;8.77;3.83;;;;;;;9.75;91.20;98785.41;5096886;27;20366;-95
2021/11/09 03:05:53;;;;;;;31.85;5.80;;;;;;;9.79;91.03;98799.50;5097006;28;20040;-95
2021/11/09 03:11:21;;;;;;;7.05;3.30;;;;;;;9.77;89.56;98799.53;5115950;27;20731;-94
2021/11/09 03:16:53;;;;;;;11.50;4.25;;;;;;;9.94;89.16;98822.19;5154930;27;20392;-96
2021/11/09 03:40:32;;;;;;;14.70;3.60;;;;;;;9.79;88.32;98804.81;5076491;27;20395;-95
2021/11/09 03:46:17;;;;;;;6.57;3.10;;;;;;;9.88;87.43;98829.38;5144683;27;20896;-94
2021/11/09 03:48:43;;;;;;;8.93;3.15;;;;;;;9.88;87.04;98817.88;5128034;28;20058;-95
2021/11/09 03:51:09;;;;;;;7.97;2.80;;;;;;;10.04;86.56;98837.88;5114865;28;20036;-92
2021/11/09 03:53:38;;;;;;;10.05;3.30;;;;;;;10.04;86.85;98832.56;5122848;28;20496;-94
2021/11/09 03:59:12;;;;;;;11.80;3.28;;;;;;;10.03;86.86;98837.91;5090135;27;20383;-94
2021/11/09 04:01:47;;;;;;;9.43;3.30;;;;;;;10.00;86.27;98822.91;5076620;28;20056;-94
2021/11/09 05:09:07;;;;;;;6.95;2.90;;;;;;;9.95;85.45;98877.03;5135515;27;20372;-94
2021/11/09 05:11:34;;;;;;;5.30;2.95;;;;;;;9.92;85.82;98871.81;5117400;28;20040;-94
2021/11/09 05:13:59;;;;;;;5.63;2.67;;;;;;;9.95;85.72;98890.31;5136242;27;20088;-95
2021/11/09 05:16:25;;;;;;;9.13;3.00;;;;;;;9.94;85.60;98885.94;5135848;27;20464;-95
2021/11/09 05:18:51;;;;;;;6.63;2.92;;;;;;;10.05;85.86;98914.00;5138041;27;20039;-94
2021/11/09 05:21:17;;;;;;;6.82;3.17;;;;;;;10.03;85.90;98915.81;5136496;28;20043;-95
2021/11/09 05:23:43;;;;;;;7.22;3.13;;;;;;;9.88;85.26;98885.16;5137882;27;20043;-95
2021/11/09 05:26:11;;;;;;;6.93;2.85;;;;;;;9.93;85.58;98898.34;5136822;27;20127;-94
2021/11/09 05:28:36;;;;;;;8.35;3.42;;;;;;;10.07;85.50;98921.94;5136482;27;20043;-94
2021/11/09 05:31:03;;;;;;;9.27;2.72;;;;;;;10.19;84.69;98929.66;5135424;27;20043;-94
2021/11/09 05:33:32;;;;;;;7.00;2.92;;;;;;;10.16;84.87;98935.00;5135037;27;20386;-94
2021/11/09 05:35:59;;;;;;;7.38;2.72;;;;;;;10.02;85.14;98903.44;5134809;27;20497;-94
2021/11/09 05:38:30;;;;;;;5.63;2.83;;;;;;;10.17;84.46;98922.59;5134555;27;20116;-93
2021/11/09 05:41:06;;;;;;;6.88;3.20;;;;;;;10.28;84.12;98928.56;5136393;27;20115;-92
2021/11/09 05:43:34;;;;;;;3.95;2.45;;;;;;;10.14;84.26;98928.84;5129684;27;20130;-94
2021/11/09 05:46:01;;;;;;;5.75;3.00;;;;;;;10.01;84.84;98919.41;5135828;27;20492;-95
2021/11/09 05:48:27;;;;;;;5.80;3.25;;;;;;;10.01;85.24;98932.69;5135212;27;20130;-95
2021/11/09 05:50:54;;;;;;;10.15;3.63;;;;;;;9.96;85.13;98937.25;5137144;27;20055;-96
2021/11/09 05:53:20;;;;;;;6.07;3.10;;;;;;;9.94;85.76;98945.25;5137236;27;20039;-96
2021/11/09 05:55:46;;;;;;;5.43;2.92;;;;;;;9.82;85.84;98926.91;5137583;27;20402;-95
2021/11/09 05:58:11;;;;;;;4.90;2.85;;;;;;;9.91;85.56;98932.03;5136006;27;20039;-94
2021/11/09 06:00:39;;;;;;;6.43;2.75;;;;;;;9.89;85.58;98947.16;5137458;27;20095;-96
2021/11/09 06:03:05;;;;;;;7.57;3.13;;;;;;;9.86;85.66;98947.19;5138590;27;20296;-96
2021/11/09 06:05:31;;;;;;;8.20;3.50;;;;;;;9.97;85.40;98963.75;5138620;27;20076;-94
2021/11/09 06:07:57;;;;;;;7.70;3.90;;;;;;;9.78;85.90;98949.13;5136552;27;20403;-95
2021/11/09 06:10:23;;;;;;;11.07;3.53;;;;;;;9.79;85.73;98951.75;5137764;27;20039;-96
2021/11/09 06:12:49;;;;;;;6.95;3.33;;;;;;;9.77;85.46;98948.25;5137294;27;20047;-94
2021/11/09 06:15:15;;;;;;;9.55;3.85;;;;;;;9.75;86.13;98962.47;5138016;27;20116;-96
2021/11/09 06:17:43;;;;;;;7.57;3.20;;;;;;;9.73;86.06;98969.59;5137905;27;20052;-96
2021/11/09 06:20:10;;;;;;;8.25;3.08;;;;;;;9.77;85.84;98971.28;5125508;27;20040;-95
2021/11/09 06:22:39;;;;;;;7.53;3.70;;;;;;;9.86;85.84;98997.66;5125041;28;20122;-94
2021/11/09 06:25:05;;;;;;;;;;;;;;;9.94;85.91;99016.97;5124259;28;20046;-95
2021/11/09 06:27:31;;;;;;;7.38;3.38;;;;;;;9.76;86.16;99004.03;5125643;28;19919;-95
2021/11/09 06:29:57;;;;;;;7.38;3.20;;;;;;;9.88;85.46;99006.47;5125557;28;20040;-93
2021/11/09 06:32:23;;;;;;;8.98;3.33;;;;;;;9.86;85.65;99006.50;5123455;28;20054;-94
2021/11/09 06:34:53;;;;;;;7.43;3.00;;;;;;;10.03;85.36;99018.56;5122355;28;20048;-95
2021/11/09 06:37:19;;;;;;;7.00;3.60;;;;;;;9.94;85.05;99001.03;5124009;28;20123;-96
2021/11/09 06:39:45;;;;;;;5.50;2.90;;;;;;;10.08;83.88;99008.69;5122802;28;20059;-94
2021/11/09 06:42:11;;;;;;;7.35;3.83;;;;;;;10.19;83.58;99014.69;5123694;28;20048;-94
2021/11/09 06:44:38;;;;;;;7.93;3.20;;;;;;;10.41;82.73;99025.75;5122853;28;20039;-93
2021/11/09 06:47:05;;;;;;;6.35;2.97;;;;;;;10.53;81.83;99024.59;5117277;28;20092;-93
2021/11/09 06:49:31;;;;;;;5.70;2.90;;;;;;;10.51;81.79;99020.22;5123467;27;20516;-95
2021/11/09 06:51:59;;;;;;;7.85;3.17;;;;;;;10.51;81.79;99018.44;5122293;28;20136;-94
2021/11/09 06:54:28;;;;;;;8.23;3.00;;;;;;;10.67;80.62;99041.13;5120319;28;20372;-94
2021/11/09 06:56:54;;;;;;;8.02;3.00;;;;;;;10.78;81.05;99051.50;5119416;28;20071;-94
2021/11/09 06:59:21;;;;;;;5.35;2.92;;;;;;;10.75;80.52;99029.41;5119752;28;20032;-95
2021/11/09 07:01:47;;;;;;;9.40;4.03;;;;;;;10.65;80.73;99029.63;5119914;28;20131;-93
2021/11/09 07:04:14;;;;;;;6.70;3.55;;;;;;;10.74;81.05;99035.66;5118790;28;20047;-95
2021/11/09 07:06:40;;;;;;;6.25;3.22;;;;;;;10.76;80.49;99037.38;5122484;27;20039;-96
2021/11/09 07:09:07;;;;;;;7.53;3.72;;;;;;;10.80;80.28;99032.81;5140879;27;20046;-94
2021/11/09 07:11:33;;;;;;;6.20;3.00;;;;;;;10.92;80.36;99047.63;5139997;27;20151;-95
2021/11/09 07:13:59;;;;;;;12.10;3.63;;;;;;;11.01;79.90;99052.72;5139781;27;20027;-95
2021/11/09 07:16:26;;;;;;;11.77;4.35;;;;;;;11.11;79.04;99048.94;5138439;27;20084;-95
2021/11/09 07:19:00;;;;;;;10.52;4.78;;;;;;;11.27;78.79;99052.09;5138959;27;20035;-94
2021/11/09 07:21:27;;;;;;;6.70;3.42;;;;;;;11.24;77.93;99045.06;5136845;27;20066;-95
2021/11/09 07:23:53;;;;;;;7.97;3.05;;;;;;;11.28;77.85;99051.19;5137790;27;20049;-95
2021/11/09 07:26:20;;;;;;;10.00;3.50;;;;;;;11.43;77.53;99047.25;5138991;27;20046;-93
2021/11/09 07:28:46;;;;;;;6.50;3.70;;;;;;;11.61;77.80;99078.72;5139390;27;20046;-95
2021/11/09 07:31:15;;;;;;;6.22;3.03;;;;;;;11.68;77.06;99092.75;5144486;27;20093;-93
2021/11/09 07:33:41;;;;;;;;;;;;;;;11.82;76.88;99095.94;5140479;27;20106;-95
2021/11/09 07:36:07;;;;;;;6.18;3.20;;;;;;;11.83;76.40;99092.34;5139875;27;19954;-96
2021/11/09 07:38:34;;;;;;;6.85;2.92;;;;;;;11.95;75.13;99098.28;5144497;27;20111;-93
2021/11/09 07:41:00;;;;;;;6.03;2.83;;;;;;;12.12;74.63;99107.56;5144530;27;20053;-96
2021/11/09 07:43:28;;;;;;;5.38;2.80;;;;;;;12.21;74.23;99110.88;5146012;27;20047;-94
2021/11/09 07:45:57;;;;;;;6.93;3.10;;;;;;;12.18;74.27;99125.16;5144002;27;20039;-95
2021/11/09 07:48:23;;;;;;;8.13;2.95;;;;;;;12.12;74.10;99106.69;5141363;27;20039;-94
2021/11/09 07:50:49;;;;;;;7.00;3.20;;;;;;;12.23;74.77;99112.59;5144713;27;20042;-96
2021/11/09 07:53:17;;;;;;;6.68;3.00;;;;;;;12.28;74.01;99109.81;5140165;27;20035;-95
2021/11/09 07:55:49;;;;;;;10.15;3.22;;;;;;;12.37;73.65;99106.00;5140921;27;20073;-94
2021/11/09 07:58:20;;;;;;;8.07;3.40;;;;;;;12.27;73.62;99103.59;5137471;27;20076;-96
2021/11/09 08:00:50;;;;;;;8.43;3.00;;;;;;;12.67;73.44;99118.44;5150621;27;20074;-94
2021/11/09 08:03:23;;;;;;;7.80;3.53;;;;;;;12.51;73.33;99104.69;5145565;27;20031;-95
2021/11/09 08:11:53;;;;;;;7.63;3.30;;;;;;;12.74;72.73;99098.63;5094716;27;1414325;-95
2021/11/09 08:14:19;;;;;;;7.78;3.38;;;;;;;12.59;72.58;99076.91;5152008;27;20045;-95
2021/11/09 08:16:47;;;;;;;7.35;3.45;;;;;;;12.81;72.28;99110.00;5142260;27;20043;-93
2021/11/09 08:19:14;;;;;;;7.20;2.70;;;;;;;12.89;71.89;99105.31;5142200;27;20039;-92
2021/11/09 08:21:40;;;;;;;5.53;3.00;;;;;;;12.97;72.21;99090.81;5138486;27;20037;-93
2021/11/09 08:24:08;;;;;;;6.45;3.28;;;;;;;12.99;71.96;99091.66;5151026;27;20069;-95
2021/11/09 08:26:36;;;;;;;6.80;2.90;;;;;;;13.22;72.10;99129.19;5138509;27;20365;-95
2021/11/09 08:29:04;;;;;;;5.53;3.03;;;;;;;13.15;72.93;99112.47;5143964;27;20042;-94
2021/11/09 08:31:32;;;;;;;7.57;2.87;;;;;;;13.12;71.82;99109.94;5143210;27;20035;-94
2021/11/09 08:33:58;;;;;;;9.45;2.90;;;;;;;13.01;72.08;99106.72;5143397;27;20066;-95
2021/11/09 08:36:29;;;;;;;6.88;3.13;;;;;;;12.97;72.53;99098.84;5147205;27;20031;-93
2021/11/09 08:38:56;;;;;;;6.93;2.97;;;;;;;12.98;72.99;99120.16;5139476;27;20044;-95
2021/11/09 08:41:26;;;;;;;5.43;3.00;;;;;;;13.06;72.80;99119.94;5138194;27;20040;-92
2021/11/09 08:46:56;;;;;;;8.98;4.35;;;;;;;13.12;71.97;99117.06;5093762;27;20370;-93
2021/11/09 08:49:27;;;;;;;5.88;2.97;;;;;;;13.15;71.87;99115.16;5095919;28;20417;-96
2021/11/09 08:51:55;;;;;;;6.72;2.92;;;;;;;13.16;71.93;99116.03;5100816;28;20071;-94
2021/11/09 09:06:33;;;;;;;5.60;2.63;;;;;;;13.37;71.59;99162.56;5141529;27;20383;-94
2021/11/09 09:09:00;;;;;;;6.15;2.83;;;;;;;13.33;71.05;99159.13;5140038;28;20051;-94
2021/11/09 09:12:12;;;;;;;4.40;2.47;;;;;;;13.51;71.61;99204.88;5139659;28;20481;-93
2021/11/09 09:14:38;;;;;;;4.53;2.40;;;;;;;13.37;70.97;99170.59;5126441;27;20074;-93
2021/11/09 09:17:05;;;;;;;4.35;2.15;;;;;;;13.42;70.58;99182.00;5136744;28;20496;-93
2021/11/09 09:22:38;;;;;;;3.67;2.30;;;;;;;13.47;69.83;99181.88;5154408;27;20391;-94
2021/11/09 09:25:12;;;;;;;5.88;2.60;;;;;;;13.53;69.62;99181.66;5114531;28;20044;-95
2021/11/09 09:57:54;;;;;;;3.60;2.30;;;;;;;14.70;67.82;99209.72;5149036;27;20391;-94
2021/11/09 10:00:20;;;;;;;3.38;2.30;;;;;;;14.28;68.79;99215.69;5154545;27;20529;-94
2021/11/09 10:02:49;;;;;;;3.28;2.10;;;;;;;13.96;69.37;99212.31;5155812;27;20125;-94
2021/11/09 10:05:16;;;;;;;4.13;2.15;;;;;;;13.94;69.50;99190.97;5155848;27;20063;-95
2021/11/09 10:07:44;;;;;;;5.47;2.40;;;;;;;14.22;69.72;99239.97;5155654;27;20130;-96
2021/11/09 10:10:16;;;;;;;7.47;2.20;;;;;;;14.46;68.31;99206.97;5150983;27;20042;-94
2021/11/09 10:12:44;;;;;;;3.88;2.22;;;;;;;14.66;68.87;99203.63;5155475;27;20035;-95
2021/11/09 10:15:13;;;;;;;3.70;2.05;;;;;;;14.55;68.56;99216.50;5156910;27;20043;-94
2021/11/09 10:17:43;;;;;;;2.40;1.70;;;;;;;14.37;68.52;99212.66;5157455;27;20492;-93
2021/11/09 10:20:10;;;;;;;;;;;;;;;14.23;69.64;99252.44;5157516;27;20069;-94
2021/11/09 10:22:37;;;;;;;2.75;1.92;;;;;;;14.03;70.09;99205.84;5157559;27;19983;-93
2021/11/09 10:25:07;;;;;;;2.70;1.80;;;;;;;14.00;69.74;99240.69;5155747;27;20369;-94
2021/11/09 10:27:33;;;;;;;;;;;;;;;14.29;69.47;99261.13;5154385;27;20035;-91
2021/11/09 10:30:03;;;;;;;3.35;1.88;;;;;;;14.25;69.37;99229.13;5153846;27;19926;-91
2021/11/09 10:32:31;;;;;;;2.65;2.00;;;;;;;14.60;68.78;99233.31;5153452;27;20437;-92
2021/11/09 10:35:00;;;;;;;5.07;1.98;;;;;;;14.50;68.15;99213.97;5153842;27;20048;-94
2021/11/09 10:37:28;;;;;;;6.45;2.00;;;;;;;14.39;68.58;99232.22;5153615;27;20062;-94
2021/11/09 10:39:58;;;;;;;3.45;1.85;;;;;;;14.41;68.66;99217.00;5154135;27;20383;-94
2021/11/09 10:42:27;;;;;;;3.42;1.80;;;;;;;14.59;67.83;99218.16;5149483;27;20122;-92
2021/11/09 10:44:57;;;;;;;3.30;1.90;;;;;;;14.57;67.73;99207.53;5154566;27;20039;-94
2021/11/09 10:47:24;;;;;;;;;;;;;;;14.81;67.48;99241.47;5154074;27;20039;-92
2021/11/09 10:49:54;;;;;;;2.95;1.70;;;;;;;14.89;67.60;99250.97;5153912;27;20002;-93
2021/11/09 10:55:24;;;;;;;5.65;2.03;;;;;;;14.74;67.97;99249.72;5153239;27;20623;-93
2021/11/09 11:07:01;;;;;;;4.15;1.80;;;;;;;14.59;68.73;99236.88;5073501;27;20403;-94
2021/11/09 11:09:27;;;;;;;3.17;1.80;;;;;;;14.83;68.08;99245.81;5070975;28;20064;-95
2021/11/09 11:11:59;;;;;;;2.85;1.80;;;;;;;14.50;69.32;99223.81;5072037;28;20096;-92
2021/11/09 11:14:28;;;;;;;2.33;1.90;;;;;;;14.38;69.35;99241.19;5075075;28;20072;-94
2021/11/09 11:16:59;;;;;;;4.13;1.80;;;;;;;14.41;69.51;99233.03;5067155;28;20060;-94
2021/11/09 11:19:28;;;;;;;3.80;2.10;;;;;;;14.60;69.22;99243.13;5070409;28;20075;-93
2021/11/09 11:21:57;;;;;;;4.43;2.00;;;;;;;14.25;69.51;99227.38;5056946;28;20045;-94
2021/11/09 11:24:23;;;;;;;3.40;1.80;;;;;;;14.26;69.06;99215.72;5057268;28;20399;-95
2021/11/09 11:26:51;;;;;;;5.10;2.13;;;;;;;14.26;70.38;99238.94;5059106;28;20052;-94
2021/11/09 11:29:19;;;;;;;4.72;1.90;;;;;;;14.45;69.34;99247.19;5056502;28;20045;-95
2021/11/09 11:31:45;;;;;;;3.15;1.80;;;;;;;14.47;69.36;99237.31;5060069;28;20041;-93
2021/11/09 11:34:12;;;;;;;4.35;1.90;;;;;;;14.73;69.23;99266.72;5072385;28;20076;-92
2021/11/09 11:36:38;;;;;;;3.78;2.00;;;;;;;14.50;70.23;99248.75;5066752;28;20106;-95
2021/11/09 11:39:09;;;;;;;3.40;1.90;;;;;;;14.71;69.04;99233.78;5063169;28;20048;-93
2021/11/09 11:41:37;;;;;;;3.13;1.92;;;;;;;14.57;69.60;99260.16;5063832;28;20043;-91
2021/11/09 11:44:06;;;;;;;4.03;2.17;;;;;;;14.57;69.86;99244.09;5066471;28;20159;-94
2021/11/09 11:46:49;;;;;;;4.57;2.37;;;;;;;14.47;69.66;99242.66;5062761;28;20043;-94
2021/11/09 11:49:18;;;;;;;3.30;1.90;;;;;;;14.35;70.40;99255.53;5062534;28;20051;-93
2021/11/09 11:52:32;;;;;;;2.40;1.67;;;;;;;14.48;70.24;99255.97;5070642;28;20056;-93
2021/11/09 11:55:06;;;;;;;3.10;2.10;;;;;;;14.32;70.53;99233.38;5016005;28;20070;-94
2021/11/09 11:57:47;;;;;;;3.25;2.10;;;;;;;14.49;70.61;99238.13;5016015;28;20065;-95
2021/11/09 12:00:29;;;;;;;2.45;1.70;;;;;;;14.49;70.48;99214.06;5017856;28;20050;-92
2021/11/09 12:02:55;;;;;;;3.50;2.10;;;;;;;14.42;70.05;99234.81;5009060;28;20373;-96
2021/11/09 12:05:37;;;;;;;2.90;1.85;;;;;;;14.43;70.39;99233.88;5025586;28;20070;-94
2021/11/09 12:08:04;;;;;;;2.80;1.60;;;;;;;14.48;69.57;99226.53;5013586;28;20050;-93
2021/11/09 12:10:40;;;;;;;4.82;2.22;;;;;;;14.62;69.75;99265.38;5018674;28;20057;-95
2021/11/09 12:13:09;;;;;;;2.45;1.75;;;;;;;14.75;68.29;99231.88;5019282;28;20049;-95
2021/11/09 12:15:45;;;;;;;3.47;1.90;;;;;;;14.86;68.54;99239.50;5023709;28;20038;-94
2021/11/09 12:18:39;;;;;;;2.72;1.75;;;;;;;14.97;68.41;99242.66;5005135;28;20034;-94
2021/11/09 12:21:07;;;;;;;2.90;1.67;;;;;;;15.09;67.58;99211.84;5004051;28;20042;-93
2021/11/09 12:23:35;;;;;;;2.05;1.70;;;;;;;15.09;67.50;99225.25;5004162;28;20042;-94
2021/11/09 12:26:03;;;;;;;3.10;1.75;;;;;;;14.62;68.45;99207.34;5002953;28;20602;-95
2021/11/09 12:28:35;;;;;;;3.58;1.83;;;;;;;14.36;69.16;99240.38;5028316;28;20136;-94
2021/11/09 12:31:11;;;;;;;3.67;1.73;;;;;;;14.37;69.58;99240.28;5042492;28;20040;-94
2021/11/09 12:33:46;;;;;;;2.45;1.60;;;;;;;14.17;69.74;99226.75;5048099;28;20045;-95
2021/11/09 12:36:20;;;;;;;2.20;1.83;;;;;;;14.18;69.10;99248.09;5058457;28;20045;-95
2021/11/09 12:38:49;;;;;;;4.70;1.80;;;;;;;14.51;68.96;99271.06;5040762;28;20046;-92
2021/11/09 12:41:21;;;;;;;5.05;2.55;;;;;;;14.44;69.10;99222.22;5041200;28;20073;-94
2021/11/09 12:43:48;;;;;;;2.65;1.88;;;;;;;14.52;68.83;99228.19;5053939;28;20491;-95
2021/11/09 12:46:22;;;;;;;3.40;1.90;;;;;;;14.61;68.61;99228.81;5048194;28;20041;-95
2021/11/09 12:48:54;;;;;;;5.40;2.70;;;;;;;14.61;69.46;99263.59;5039685;28;20064;-94
2021/11/09 12:51:23;;;;;;;2.53;1.92;;;;;;;14.70;67.96;99268.63;5048047;28;20048;-92
2021/11/09 12:53:51;;;;;;;3.92;2.28;;;;;;;14.62;68.68;99268.06;5055012;28;20045;-94
2021/11/09 12:56:31;;;;;;;4.22;2.15;;;;;;;14.33;69.30;99278.81;5052868;28;20033;-92
2021/11/09 12:59:02;;;;;;;3.97;2.40;;;;;;;14.26;70.42;99273.72;5047940;28;20067;-93
2021/11/09 13:04:19;;;;;;;4.40;2.25;;;;;;;14.43;69.87;99257.06;5136884;27;1527899;-92
2021/11/09 13:09:59;;;;;;;3.92;2.17;;;;;;;14.66;69.40;99254.50;5095768;27;1490306;-93
2021/11/09 13:12:28;;;;;;;2.95;1.90;;;;;;;14.57;69.48;99258.38;5126881;28;20058;-93
2021/11/09 13:21:06;;;;;;;3.40;2.20;;;;;;;14.49;70.49;99270.25;5078392;27;20386;-93
2021/11/09 13:23:34;;;;;;;4.05;2.40;;;;;;;14.53;70.35;99275.44;5081855;28;20041;-93
2021/11/09 13:26:00;;;;;;;5.63;2.60;;;;;;;14.54;69.72;99269.13;5081067;28;20123;-94
2021/11/09 13:28:33;;;;;;;3.65;1.92;;;;;;;14.55;69.81;99272.72;5086764;28;20036;-95
2021/11/09 13:31:04;;;;;;;4.50;2.50;;;;;;;14.37;70.31;99274.22;5080412;28;20068;-92
2021/11/09 13:33:31;;;;;;;3.92;2.13;;;;;;;14.38;70.19;99282.19;5075768;28;20039;-93
2021/11/09 13:35:58;;;;;;;3.17;2.08;;;;;;;14.33;70.61;99278.81;5078058;28;20610;-92
2021/11/09 13:38:27;;;;;;;4.00;2.00;;;;;;;14.34;70.89;99293.06;5075242;28;20036;-93
2021/11/09 13:40:57;;;;;;;4.00;2.10;;;;;;;14.17;70.96;99275.75;5079156;28;20068;-92
2021/11/09 13:43:26;;;;;;;4.85;2.40;;;;;;;14.30;70.87;99291.41;5067402;28;20041;-94
2021/11/09 13:45:56;;;;;;;5.28;2.58;;;;;;;14.42;70.64;99307.06;5081081;28;20590;-93
2021/11/09 13:48:23;;;;;;;4.00;2.50;;;;;;;14.45;71.12;99284.66;5077804;28;20568;-94
2021/11/09 13:50:51;;;;;;;5.63;2.55;;;;;;;14.70;70.12;99308.78;5085652;28;20044;-92
2021/11/09 13:53:22;;;;;;;5.30;2.97;;;;;;;14.62;70.68;99314.41;5077894;28;20056;-93
2021/11/09 13:55:50;;;;;;;4.45;2.53;;;;;;;14.35;70.68;99292.13;5081151;28;20296;-93
2021/11/09 13:58:17;;;;;;;4.00;2.30;;;;;;;14.30;70.73;99302.09;5073320;28;20127;-94
2021/11/09 14:00:47;;;;;;;5.03;2.90;;;;;;;14.06;71.43;99325.19;5079721;28;20049;-93
2021/11/09 14:18:17;;;;;;;7.85;3.53;;;;;;;13.96;72.92;99344.19;5135645;27;20383;-93
2021/11/09 14:20:54;;;;;;;6.22;3.05;;;;;;;13.97;72.46;99353.09;5116710;28;20051;-92
2021/11/09 14:23:29;;;;;;;4.57;2.80;;;;;;;13.89;72.24;99344.44;5120258;28;20048;-93
2021/11/09 14:25:56;;;;;;;5.97;2.60;;;;;;;13.75;72.55;99332.38;5116312;28;20461;-93
2021/11/09 14:28:33;;;;;;;4.25;2.55;;;;;;;13.74;72.33;99343.97;5122705;28;20032;-93
2021/11/09 14:31:10;;;;;;;4.32;2.20;;;;;;;13.66;72.45;99346.03;5119637;28;20043;-93
2021/11/09 14:33:37;;;;;;;5.75;2.92;;;;;;;13.70;73.12;99355.69;5123865;28;20131;-93
2021/11/09 14:36:21;;;;;;;16.52;5.88;;;;;;;13.50;73.18;99336.72;5116263;28;20481;-95
2021/11/09 14:38:50;;;;;;;4.03;2.20;;;;;;;13.48;72.42;99334.09;5124647;28;20036;-94
2021/11/09 14:41:23;;;;;;;5.87;2.93;;;;;;;13.50;73.43;99345.59;5129014;28;20040;-95
2021/11/09 14:44:00;;;;;;;4.75;2.83;;;;;;;13.63;72.64;99367.50;5123413;28;20051;-93
2021/11/09 14:46:38;;;;;;;9.75;4.70;;;;;;;13.53;72.73;99358.00;5125076;28;20118;-95
2021/11/09 14:49:10;;;;;;;3.53;2.17;;;;;;;13.57;72.37;99362.31;5114616;28;20097;-94
2021/11/09 14:51:37;;;;;;;8.50;3.42;;;;;;;13.43;72.37;99367.22;5123827;28;20059;-93
2021/11/09 14:57:07;;;;;;;5.57;2.63;;;;;;;13.62;72.28;99403.16;5094093;27;20386;-94
2021/11/09 14:59:33;;;;;;;;;;;;;;;13.59;72.80;99410.38;5094870;28;20109;-93
2021/11/09 15:02:01;;;;;;;16.02;7.45;;;;;;;13.49;73.09;99385.75;5093305;28;19924;-92
2021/11/09 15:07:35;;;;;;;3.90;2.10;;;;;;;13.34;73.00;99371.91;5114160;27;20368;-93
2021/11/09 15:33:49;;;;;;;7.15;3.78;;;;;;;13.09;74.64;99410.84;5143447;27;20466;-92
2021/11/09 15:39:21;;;;;;;5.97;3.05;;;;;;;13.01;74.71;99405.75;5150463;27;20729;-92
2021/11/09 15:41:47;;;;;;;4.70;2.45;;;;;;;12.98;74.84;99399.59;5132841;28;20046;-93
2021/11/09 15:44:16;;;;;;;4.43;2.35;;;;;;;12.99;74.56;99410.25;5132857;28;20097;-92
2021/11/09 15:46:43;;;;;;;3.75;2.15;;;;;;;12.85;74.51;99383.03;5132016;28;20040;-93